Flight Track Log - Related Links

Times and Time Zones

All times are in EDT time to prevent confusion due to time zone crossing. See the SKW4664 flight status page for this flight to view local times or setup timezone preferences in your user account.

Time Position Orientation Groundspeed Altitude Reporting Facility
EDT Latitude Longitude Course Direction KTS MPH feet Rate Location/Type
Thu 10:41:03 AM 44.8894 -93.2467 235° Southwest 151 174 2,200  Level FAA TRACON SMA TRACON (SMA)
Thu 10:41:23 AM 44.8881 -93.2714 265° West 163 188 2,800 1,650 Climbing FAA TRACON SMA TRACON (SMA)
Thu 10:41:43 AM 44.8864 -93.2958 265° West 191 220 3,300 1,650 Climbing FAA TRACON SMA TRACON (SMA)
Thu 10:42:03 AM 44.8853 -93.3231 267° West 221 254 3,900 3,000 Climbing FAA TRACON SMA TRACON (SMA)
Thu 10:42:23 AM 44.8833 -93.3603 266° West 246 283 5,300 3,750 Climbing FAA TRACON SMA TRACON (SMA)
Thu 10:42:43 AM 44.8814 -93.3908 265° West 253 291 6,400 3,450 Climbing FAA TRACON SMA TRACON (SMA)
Thu 10:43:03 AM 44.8764 -93.4208 257° West 258 297 7,600 3,900 Climbing FAA TRACON SMA TRACON (SMA)
Thu 10:43:23 AM 44.8594 -93.4525 233° Southwest 266 306 9,000 3,600 Climbing FAA TRACON SMA TRACON (SMA)
Thu 10:43:43 AM 44.8436 -93.4761 227° Southwest 270 311 10,000 3,000 Climbing FAA TRACON SMA TRACON (SMA)
Thu 10:44:00 AM 44.6352 -93.7297 235° Southwest  Level FlightAware Approximate
Thu 10:44:03 AM 44.8281 -93.5006 228° Southwest 273 314 11,000  Level FAA TRACON SMA TRACON (SMA)
Thu 10:44:23 AM 44.8078 -93.5319 228° Southwest 280 322 12,000 2,700 Climbing FAA TRACON SMA TRACON (SMA)
Thu 10:44:43 AM 44.7914 -93.5583 229° Southwest 287 330 12,800 2,049 Climbing FAA TRACON SMA TRACON (SMA)
Thu 10:45:00 AM 44.5652 -93.8525 230° Southwest  Level FlightAware Approximate
Thu 10:45:04 AM 44.7700 -93.5928 229° Southwest 301 346 13,400  Level FAA TRACON SMA TRACON (SMA)
Thu 10:45:24 AM 44.7542 -93.6228 233° Southwest 312 359 14,200 2,700 Climbing FAA TRACON SMA TRACON (SMA)
Thu 10:45:44 AM 44.7422 -93.6558 243° Southwest 311 358 15,200 2,769 Climbing FAA TRACON SMA TRACON (SMA)
Thu 10:46:00 AM 44.4951 -93.9766 235° Southwest  Level FlightAware Approximate
Thu 10:46:03 AM 44.7300 -93.6894 243° Southwest 311 358 16,000  Level FAA TRACON SMA TRACON (SMA)
Thu 10:46:23 AM 44.7150 -93.7319 244° Southwest 316 364 17,000 2,700 Climbing FAA TRACON SMA TRACON (SMA)
Thu 10:46:43 AM 44.7031 -93.7664 244° Southwest 318 366 17,800 1,650 Climbing FAA TRACON SMA TRACON (SMA)
Thu 10:47:03 AM 44.6906 -93.8014 243° Southwest 324 373 18,100 1,650 Climbing FAA TRACON SMA TRACON (SMA)
Thu 10:47:23 AM 44.6742 -93.8456 242° Southwest 333 383 18,900 2,250 Climbing FAA TRACON SMA TRACON (SMA)
Thu 10:47:43 AM 44.6614 -93.8822 244° Southwest 337 388 19,600 1,800 Climbing FAA TRACON SMA TRACON (SMA)
Thu 10:48:03 AM 44.6486 -93.9186 244° Southwest 340 391 20,100 1,800 Climbing FAA TRACON SMA TRACON (SMA)
Thu 10:48:23 AM 44.6319 -93.9656 243° Southwest 347 399 20,800 1,950 Climbing FAA TRACON SMA TRACON (SMA)
Thu 10:48:43 AM 44.6186 -94.0033 244° Southwest 352 405 21,400 1,650 Climbing FAA TRACON SMA TRACON (SMA)
Thu 10:49:03 AM 44.6053 -94.0414 244° Southwest 353 406 21,900 878 Climbing FAA TRACON SMA TRACON (SMA)
Thu 10:49:24 AM 44.5881 -94.0903 244° Southwest 360 414 22,000 146 Climbing FAA TRACON SMA TRACON (SMA)
Thu 10:49:44 AM 44.5753 -94.1294 245° Southwest 361 415 22,000  Level FAA TRACON SMA TRACON (SMA)
Thu 10:50:04 AM 44.5572 -94.1775 242° Southwest 362 417 22,000  Level FAA TRACON SMA TRACON (SMA)
Thu 10:50:23 AM 44.5447 -94.2167 246° West 361 415 22,000  Level FAA TRACON SMA TRACON (SMA)
Thu 10:50:44 AM 44.5314 -94.2553 244° Southwest 359 413 22,000  Level FAA TRACON SMA TRACON (SMA)
Thu 10:51:03 AM 44.5178 -94.2939 244° Southwest 358 412 22,000  Level FAA TRACON SMA TRACON (SMA)
Thu 10:51:23 AM 44.5008 -94.3417 244° Southwest 357 411 22,000  Level FAA TRACON SMA TRACON (SMA)
Thu 10:51:43 AM 44.4872 -94.3800 244° Southwest 356 410 22,000  Level FAA TRACON SMA TRACON (SMA)
Thu 10:52:03 AM 44.4739 -94.4181 244° Southwest 355 409 22,000  Level FAA TRACON SMA TRACON (SMA)
Thu 10:52:23 AM 44.4572 -94.4650 244° Southwest 352 405 22,000  Level FAA TRACON SMA TRACON (SMA)
Thu 10:52:43 AM 44.4506 -94.4839 244° Southwest 352 405 22,000  Level FAA TRACON SMA TRACON (SMA)
Thu 10:53:15 AM 44.4231 -94.5425 237° Southwest 352 405 22,000  Level Minneapolis Center
Thu 10:54:17 AM 44.3769 -94.6683 243° Southwest 350 403 22,000  Level Minneapolis Center
Thu 10:55:19 AM 44.3239 -94.8125 243° Southwest 349 402 22,000  Level Minneapolis Center
Thu 10:56:21 AM 44.2783 -94.9336 242° Southwest 351 404 22,000  Level Minneapolis Center
Thu 10:57:23 AM 44.2331 -95.0553 243° Southwest 353 406 22,000  Level Minneapolis Center
Thu 10:58:25 AM 44.1872 -95.1783 243° Southwest 356 410 22,000  Level Minneapolis Center
Thu 10:59:27 AM 44.1408 -95.3022 242° Southwest 360 414 22,000  Level Minneapolis Center
Thu 11:00:29 AM 44.0936 -95.4272 242° Southwest 364 419 22,000  Level Minneapolis Center
Thu 11:01:31 AM 44.0456 -95.5514 242° Southwest 364 419 22,000 -726 Level Minneapolis Center
Thu 11:02:33 AM 43.9883 -95.7017 242° Southwest 365 420 20,500 -1,935 Descending Minneapolis Center
Thu 11:03:35 AM 43.9417 -95.8222 242° Southwest 355 409 18,000 -2,371 Descending Minneapolis Center
Thu 11:04:37 AM 43.8981 -95.9339 242° Southwest 336 387 15,600 -2,371 Descending Minneapolis Center
Thu 11:05:39 AM 43.8564 -96.0408 242° Southwest 320 368 13,100 -2,419 Descending Minneapolis Center
Thu 11:06:41 AM 43.8175 -96.1411 242° Southwest 304 350 10,600 -2,032 Descending Minneapolis Center
Thu 11:07:43 AM 43.7825 -96.2331 242° Southwest 288 331 8,900 -1,790 Descending Minneapolis Center
Thu 11:08:45 AM 43.7486 -96.3197 242° Southwest 272 313 6,900 -2,129 Descending Minneapolis Center
Thu 11:09:47 AM 43.7092 -96.4197 241° Southwest 257 296 4,500 -1,887 Descending Minneapolis Center
Thu 11:10:49 AM 43.6781 -96.4983 241° Southwest 246 283 3,000 -726 Descending Minneapolis Center
Thu 11:11:51 AM 43.6525 -96.5572 239° Southwest 219 252 3,000  Level Minneapolis Center

Login

Don't have an account? Register now (free) for customized features, flight alerts, and more!